ěÝzenÝ letovÚho provozu ╚eskÚ republiky
Letiste: LKNA Aktualizace: 10.08.2022 17:29:32  UTC
 METAR LKNA 10.08. 17:30 ...
METAR LKNA 101730Z 06009KT CAVOK 22/08 Q1025 NOSIG RMK BLU BLU=
 TAF LKNA 10.08. 11:00 ...
TAF LKNA 101100Z 1012/1112 05010KT CAVOK      TEMPO 1012/1018 04014G24KT      TEMPO 1100/1108 36005KT=